Time;durP1;ratioP1;P1;durP2;ratioP2;P2;SDS_P1;SDS_P2;PMS_P1;PMS_P2;Temp;Humidity;BMP_temperature;BMP_pressure;BME280_temperature;BME280_humidity;BME280_pressure;Samples;Min_cycle;Max_cycle;Signal;HPM_P1;HPM_P2
2023/09/04 00:02:12;;;;;;;;;;;;;;;;;;5077207;28;20003;-53
2023/09/04 00:04:38;;;;;;;;;;;;;;;;;;5088679;28;20428;-57
2023/09/04 00:07:04;;;;;;;;;;;;;;;;;;5084469;28;20003;-57
2023/09/04 00:09:29;;;;;;;;;;;;;;;;;;5082743;28;19972;-57
2023/09/04 00:11:55;;;;;;;;;;;;;;;;;;5087464;28;19912;-57
2023/09/04 00:14:21;;;;;;;;;;;;;;;;;;5086145;28;19960;-58
2023/09/04 00:16:47;;;;;;;;;;;;;;;;;;5083961;28;19959;-59
2023/09/04 00:19:13;;;;;;;;;;;;;;;;;;5088110;28;20474;-57
2023/09/04 00:21:39;;;;;;;;;;;;;;;;;;5085585;28;19926;-57
2023/09/04 00:24:05;;;;;;;;;;;;;;;;;;5077578;28;20003;-58
2023/09/04 00:26:31;;;;;;;;;;;;;;;;;;5076999;28;20356;-57
2023/09/04 00:28:57;;;;;;;;;;;;;;;;;;5091719;28;19961;-58
2023/09/04 00:31:23;;;;;;;;;;;;;;;;;;5087620;28;19959;-59
2023/09/04 00:33:48;;;;;;;;;;;;;;;;;;5090156;28;20296;-57
2023/09/04 00:36:14;;;;;;;;;;;;;;;;;;5085229;28;19920;-57
2023/09/04 00:38:40;;;;;;;;;;;;;;;;;;5084993;28;19958;-58
2023/09/04 00:41:06;;;;;;;;;;;;;;;;;;5077581;28;19924;-57
2023/09/04 00:43:32;;;;;;;;;;;;;;;;;;5088403;28;20355;-58
2023/09/04 00:45:58;;;;;;;;;;;;;;;;;;5088358;28;19920;-57
2023/09/04 00:48:24;;;;;;;;;;;;;;;;;;5094405;28;19974;-57
2023/09/04 00:50:50;;;;;;;;;;;;;;;;;;5080746;28;20366;-57
2023/09/04 00:53:16;;;;;;;;;;;;;;;;;;5074690;28;20009;-57
2023/09/04 00:55:42;;;;;;;;;;;;;;;;;;5074839;28;19917;-57
2023/09/04 00:58:08;;;;;;;;;;;;;;;;;;5079283;28;20447;-58
2023/09/04 01:00:34;;;;;;;;;;;;;;;;;;5083807;28;19955;-60
2023/09/04 01:03:02;;;;;;;;;;;;;;;;;;5082957;28;19921;-60
2023/09/04 01:05:29;;;;;;;;;;;;;;;;;;5083841;28;19912;-60
2023/09/04 01:07:55;;;;;;;;;;;;;;;;;;5086282;28;19919;-60
2023/09/04 01:10:21;;;;;;;;;;;;;;;;;;5079379;28;19913;-60
2023/09/04 01:12:47;;;;;;;;;;;;;;;;;;5084715;28;19920;-60
2023/09/04 01:15:14;;;;;;;;;;;;;;;;;;5081671;28;19966;-60
2023/09/04 01:17:40;;;;;;;;;;;;;;;;;;5083301;28;19919;-60
2023/09/04 01:20:06;;;;;;;;;;;;;;;;;;5087262;28;19920;-60
2023/09/04 01:22:31;;;;;;;;;;;;;;;;;;5087241;28;19958;-60
2023/09/04 01:24:57;;;;;;;;;;;;;;;;;;5094014;28;20473;-60
2023/09/04 01:27:23;;;;;;;;;;;;;;;;;;5086881;28;19916;-60
2023/09/04 01:29:50;;;;;;;;;;;;;;;;;;5090158;28;20377;-60
2023/09/04 01:32:16;;;;;;;;;;;;;;;;;;5087140;28;19920;-60
2023/09/04 01:34:42;;;;;;;;;;;;;;;;;;5076145;28;20006;-60
2023/09/04 01:37:08;;;;;;;;;;;;;;;;;;5078596;28;19918;-61
2023/09/04 01:39:34;;;;;;;;;;;;;;;;;;5082916;28;19916;-60
2023/09/04 01:42:00;;;;;;;;;;;;;;;;;;5083380;28;20441;-60
2023/09/04 01:44:26;;;;;;;;;;;;;;;;;;5089021;28;19913;-60
2023/09/04 01:46:52;;;;;;;;;;;;;;;;;;5089066;28;19920;-60
2023/09/04 01:49:18;;;;;;;;;;;;;;;;;;5089138;28;20319;-60
2023/09/04 01:51:44;;;;;;;;;;;;;;;;;;5086454;28;20429;-60
2023/09/04 01:54:10;;;;;;;;;;;;;;;;;;5085799;28;19950;-60
2023/09/04 01:56:36;;;;;;;;;;;;;;;;;;5084237;28;20356;-60
2023/09/04 01:59:02;;;;;;;;;;;;;;;;;;5083236;28;19950;-60
2023/09/04 02:01:28;;;;;;;;;;;;;;;;;;5081628;28;19956;-60
2023/09/04 02:03:56;;;;;;;;;;;;;;;;;;5084583;28;19916;-61
2023/09/04 02:06:22;;;;;;;;;;;;;;;;;;5077903;28;19942;-62
2023/09/04 02:08:48;;;;;;;;;;;;;;;;;;5083157;28;19969;-61
2023/09/04 02:11:14;;;;;;;;;;;;;;;;;;5084578;28;20291;-57
2023/09/04 02:13:40;;;;;;;;;;;;;;;;;;5087061;28;19918;-57
2023/09/04 02:16:06;;;;;;;;;;;;;;;;;;5077600;28;19912;-58
2023/09/04 02:18:32;;;;;;;;;;;;;;;;;;5075669;28;19964;-57
2023/09/04 02:20:59;;;;;;;;;;;;;;;;;;5085291;28;19926;-58
2023/09/04 02:23:25;;;;;;;;;;;;;;;;;;5091120;28;19912;-57
2023/09/04 02:25:51;;;;;;;;;;;;;;;;;;5075388;28;20001;-57
2023/09/04 02:28:17;;;;;;;;;;;;;;;;;;5083564;28;20398;-56
2023/09/04 02:30:43;;;;;;;;;;;;;;;;;;5075457;28;19912;-58
2023/09/04 02:33:09;;;;;;;;;;;;;;;;;;5082028;28;19920;-59
2023/09/04 02:35:35;;;;;;;;;;;;;;;;;;5074916;28;19962;-57
2023/09/04 02:38:01;;;;;;;;;;;;;;;;;;5076500;28;19912;-57
2023/09/04 02:40:27;;;;;;;;;;;;;;;;;;5079160;28;19969;-58
2023/09/04 02:42:52;;;;;;;;;;;;;;;;;;5080544;28;19963;-58
2023/09/04 02:45:18;;;;;;;;;;;;;;;;;;5081527;28;20696;-57
2023/09/04 02:47:44;;;;;;;;;;;;;;;;;;5074821;28;19913;-57
2023/09/04 02:50:10;;;;;;;;;;;;;;;;;;5086487;28;20003;-58
2023/09/04 02:52:36;;;;;;;;;;;;;;;;;;5074498;28;19923;-59
2023/09/04 02:55:02;;;;;;;;;;;;;;;;;;5085032;28;20372;-57
2023/09/04 02:57:28;;;;;;;;;;;;;;;;;;5085360;28;19918;-59
2023/09/04 02:59:54;;;;;;;;;;;;;;;;;;5091312;28;19923;-57
2023/09/04 03:02:20;;;;;;;;;;;;;;;;;;5088200;28;19924;-58
2023/09/04 03:04:46;;;;;;;;;;;;;;;;;;5078554;28;19923;-58
2023/09/04 03:07:12;;;;;;;;;;;;;;;;;;5083337;28;19973;-61
2023/09/04 03:09:38;;;;;;;;;;;;;;;;;;5086424;28;19912;-57
2023/09/04 03:12:04;;;;;;;;;;;;;;;;;;5076486;28;19918;-57
2023/09/04 03:14:30;;;;;;;;;;;;;;;;;;5075398;28;19940;-57
2023/09/04 03:16:56;;;;;;;;;;;;;;;;;;5090641;28;19916;-57
2023/09/04 03:19:22;;;;;;;;;;;;;;;;;;5091663;28;20403;-59
2023/09/04 03:21:48;;;;;;;;;;;;;;;;;;5084742;28;19920;-59
2023/09/04 03:24:15;;;;;;;;;;;;;;;;;;5080984;28;19959;-60
2023/09/04 03:26:41;;;;;;;;;;;;;;;;;;5077776;28;19920;-59
2023/09/04 03:29:07;;;;;;;;;;;;;;;;;;5085957;28;19916;-59
2023/09/04 03:31:32;;;;;;;;;;;;;;;;;;5080012;28;19939;-61
2023/09/04 03:34:00;;;;;;;;;;;;;;;;;;5088360;28;19920;-58
2023/09/04 03:36:26;;;;;;;;;;;;;;;;;;5073970;28;19924;-60
2023/09/04 03:38:52;;;;;;;;;;;;;;;;;;5087517;28;19939;-57
2023/09/04 03:41:18;;;;;;;;;;;;;;;;;;5078340;28;20298;-57
2023/09/04 03:43:44;;;;;;;;;;;;;;;;;;5072410;28;19908;-57
2023/09/04 03:46:10;;;;;;;;;;;;;;;;;;5076345;28;19916;-58
2023/09/04 03:48:36;;;;;;;;;;;;;;;;;;5087709;28;19951;-57
2023/09/04 03:51:02;;;;;;;;;;;;;;;;;;5085467;28;19919;-57
2023/09/04 03:53:28;;;;;;;;;;;;;;;;;;5087910;28;19916;-57
2023/09/04 03:55:54;;;;;;;;;;;;;;;;;;5079166;28;20005;-58
2023/09/04 03:58:20;;;;;;;;;;;;;;;;;;5086052;28;20000;-58
2023/09/04 04:00:46;;;;;;;;;;;;;;;;;;5089586;28;19913;-59
2023/09/04 04:03:11;;;;;;;;;;;;;;;;;;5074709;28;19912;-58
2023/09/04 04:05:37;;;;;;;;;;;;;;;;;;5085778;28;19958;-59
2023/09/04 04:08:03;;;;;;;;;;;;;;;;;;5091033;28;20007;-58
2023/09/04 04:10:29;;;;;;;;;;;;;;;;;;5088325;28;19912;-58
2023/09/04 04:12:55;;;;;;;;;;;;;;;;;;5082160;28;19955;-57
2023/09/04 04:15:21;;;;;;;;;;;;;;;;;;5081031;28;19918;-60
2023/09/04 04:17:47;;;;;;;;;;;;;;;;;;5079960;28;20450;-58
2023/09/04 04:20:15;;;;;;;;;;;;;;;;;;5083775;28;19956;-58
2023/09/04 04:22:41;;;;;;;;;;;;;;;;;;5089935;28;19926;-57
2023/09/04 04:25:06;;;;;;;;;;;;;;;;;;5086885;28;20015;-59
2023/09/04 04:27:32;;;;;;;;;;;;;;;;;;5079127;28;20302;-57
2023/09/04 04:29:58;;;;;;;;;;;;;;;;;;5077478;28;19965;-58
2023/09/04 04:32:24;;;;;;;;;;;;;;;;;;5080420;28;20352;-58
2023/09/04 04:34:50;;;;;;;;;;;;;;;;;;5079316;28;19959;-61
2023/09/04 04:37:16;;;;;;;;;;;;;;;;;;5079515;28;19912;-57
2023/09/04 04:39:42;;;;;;;;;;;;;;;;;;5086648;28;19930;-58
2023/09/04 04:42:08;;;;;;;;;;;;;;;;;;5089029;28;19961;-58
2023/09/04 04:44:34;;;;;;;;;;;;;;;;;;5079184;28;19956;-58
2023/09/04 04:47:00;;;;;;;;;;;;;;;;;;5075637;28;20005;-58
2023/09/04 04:49:26;;;;;;;;;;;;;;;;;;5078157;28;19957;-58
2023/09/04 04:51:54;;;;;;;;;;;;;;;;;;5078566;28;19959;-59
2023/09/04 04:54:20;;;;;;;;;;;;;;;;;;5080646;28;19919;-58
2023/09/04 04:56:46;;;;;;;;;;;;;;;;;;5079300;28;19966;-59
2023/09/04 04:59:12;;;;;;;;;;;;;;;;;;5079035;28;20028;-58
2023/09/04 05:01:37;;;;;;;;;;;;;;;;;;5082545;28;20051;-58
2023/09/04 05:04:03;;;;;;;;;;;;;;;;;;5080828;28;20331;-57
2023/09/04 05:06:29;;;;;;;;;;;;;;;;;;5079783;28;19923;-58
2023/09/04 05:08:55;;;;;;;;;;;;;;;;;;5075891;28;19978;-58
2023/09/04 05:11:21;;;;;;;;;;;;;;;;;;5074737;28;19916;-59
2023/09/04 05:13:47;;;;;;;;;;;;;;;;;;5080288;28;20371;-59
2023/09/04 05:16:13;;;;;;;;;;;;;;;;;;5077268;28;19958;-61
2023/09/04 05:18:39;;;;;;;;;;;;;;;;;;5080847;28;19952;-61
2023/09/04 05:21:05;;;;;;;;;;;;;;;;;;5082047;28;20340;-58
2023/09/04 05:23:31;;;;;;;;;;;;;;;;;;5079967;28;19923;-58
2023/09/04 05:25:57;;;;;;;;;;;;;;;;;;5086305;28;20384;-57
2023/09/04 05:28:23;;;;;;;;;;;;;;;;;;5082229;28;20341;-57
2023/09/04 05:30:49;;;;;;;;;;;;;;;;;;5081050;28;19955;-56
2023/09/04 05:33:15;;;;;;;;;;;;;;;;;;5073275;28;19916;-59
2023/09/04 05:35:41;;;;;;;;;;;;;;;;;;5084813;28;19966;-57
2023/09/04 05:38:07;;;;;;;;;;;;;;;;;;5074589;28;20045;-58
2023/09/04 05:40:33;;;;;;;;;;;;;;;;;;5075797;28;19912;-57
2023/09/04 05:42:59;;;;;;;;;;;;;;;;;;5080597;28;19924;-58
2023/09/04 05:45:25;;;;;;;;;;;;;;;;;;5077333;28;19951;-57
2023/09/04 05:47:51;;;;;;;;;;;;;;;;;;5077231;28;19959;-56
2023/09/04 05:50:17;;;;;;;;;;;;;;;;;;5083118;28;20348;-57
2023/09/04 05:52:43;;;;;;;;;;;;;;;;;;5082452;28;19919;-60
2023/09/04 05:55:08;;;;;;;;;;;;;;;;;;5076911;28;20406;-58
2023/09/04 05:57:34;;;;;;;;;;;;;;;;;;5080297;28;19998;-57
2023/09/04 06:00:00;;;;;;;;;;;;;;;;;;5080638;28;19976;-58
2023/09/04 06:02:27;;;;;;;;;;;;;;;;;;5077642;28;19922;-58
2023/09/04 06:04:52;;;;;;;;;;;;;;;;;;5082232;28;19912;-58
2023/09/04 06:07:18;;;;;;;;;;;;;;;;;;5090026;28;20000;-58
2023/09/04 06:09:44;;;;;;;;;;;;;;;;;;5078757;28;19913;-58
2023/09/04 06:12:11;;;;;;;;;;;;;;;;;;5072717;28;19909;-58
2023/09/04 06:14:37;;;;;;;;;;;;;;;;;;5086251;28;19912;-57
2023/09/04 06:17:03;;;;;;;;;;;;;;;;;;5079795;28;20011;-58
2023/09/04 06:19:29;;;;;;;;;;;;;;;;;;5078325;28;20229;-57
2023/09/04 06:21:54;;;;;;;;;;;;;;;;;;5083621;28;19937;-58
2023/09/04 06:24:20;;;;;;;;;;;;;;;;;;5086180;28;19908;-57
2023/09/04 06:26:46;;;;;;;;;;;;;;;;;;5079032;28;19908;-57
2023/09/04 06:29:13;;;;;;;;;;;;;;;;;;5079347;28;20000;-58
2023/09/04 06:31:40;;;;;;;;;;;;;;;;;;5078729;28;20371;-58
2023/09/04 06:34:06;;;;;;;;;;;;;;;;;;5079165;28;19952;-58
2023/09/04 06:36:32;;;;;;;;;;;;;;;;;;5090912;28;19950;-58
2023/09/04 06:38:57;;;;;;;;;;;;;;;;;;5086459;28;19919;-57
2023/09/04 06:41:24;;;;;;;;;;;;;;;;;;5083885;28;20368;-58
2023/09/04 06:43:49;;;;;;;;;;;;;;;;;;5085035;28;19908;-58
2023/09/04 06:46:15;;;;;;;;;;;;;;;;;;5078582;28;20287;-58
2023/09/04 06:48:41;;;;;;;;;;;;;;;;;;5079271;28;19995;-57
2023/09/04 06:51:07;;;;;;;;;;;;;;;;;;5075995;28;19926;-63
2023/09/04 06:53:33;;;;;;;;;;;;;;;;;;5072485;28;20028;-63
2023/09/04 06:55:59;;;;;;;;;;;;;;;;;;5085779;28;20002;-63
2023/09/04 06:58:26;;;;;;;;;;;;;;;;;;5084275;28;19991;-63
2023/09/04 07:00:52;;;;;;;;;;;;;;;;;;5077852;28;19915;-63
2023/09/04 07:03:18;;;;;;;;;;;;;;;;;;5079785;28;19955;-63
2023/09/04 07:05:44;;;;;;;;;;;;;;;;;;5086744;28;20370;-63
2023/09/04 07:08:09;;;;;;;;;;;;;;;;;;5079869;28;19919;-63
2023/09/04 07:10:35;;;;;;;;;;;;;;;;;;5085125;28;19999;-63
2023/09/04 07:13:02;;;;;;;;;;;;;;;;;;5089295;28;20386;-62
2023/09/04 07:15:28;;;;;;;;;;;;;;;;;;5077930;28;19973;-62
2023/09/04 07:17:53;;;;;;;;;;;;;;;;;;5080154;28;19912;-63
2023/09/04 07:20:19;;;;;;;;;;;;;;;;;;5074017;28;19962;-63
2023/09/04 07:22:45;;;;;;;;;;;;;;;;;;5078848;28;19916;-61
2023/09/04 07:25:11;;;;;;;;;;;;;;;;;;5076239;28;20002;-62
2023/09/04 07:27:37;;;;;;;;;;;;;;;;;;5078802;28;19931;-63
2023/09/04 07:30:03;;;;;;;;;;;;;;;;;;5084837;28;20724;-63
2023/09/04 07:32:29;;;;;;;;;;;;;;;;;;5071224;28;20402;-63
2023/09/04 07:34:56;;;;;;;;;;;;;;;;;;5075864;28;20363;-61
2023/09/04 07:37:22;;;;;;;;;;;;;;;;;;5091902;28;20086;-63
2023/09/04 07:39:48;;;;;;;;;;;;;;;;;;5082784;28;20031;-63
2023/09/04 07:42:13;;;;;;;;;;;;;;;;;;5082003;28;19955;-63
2023/09/04 07:44:39;;;;;;;;;;;;;;;;;;5085231;28;20323;-63
2023/09/04 07:47:05;;;;;;;;;;;;;;;;;;5084350;28;19912;-64
2023/09/04 07:49:31;;;;;;;;;;;;;;;;;;5077709;28;19918;-64
2023/09/04 07:51:57;;;;;;;;;;;;;;;;;;5078499;28;19919;-64
2023/09/04 07:54:23;;;;;;;;;;;;;;;;;;5072367;28;19916;-63
2023/09/04 07:56:49;;;;;;;;;;;;;;;;;;5090917;28;20011;-64
2023/09/04 07:59:15;;;;;;;;;;;;;;;;;;5080465;28;20011;-63
2023/09/04 08:01:41;;;;;;;;;;;;;;;;;;5070700;28;19916;-62
2023/09/04 08:04:07;;;;;;;;;;;;;;;;;;5085449;28;20355;-62
2023/09/04 08:06:33;;;;;;;;;;;;;;;;;;5071462;28;20042;-62
2023/09/04 08:08:59;;;;;;;;;;;;;;;;;;5072776;28;19943;-61
2023/09/04 08:11:25;;;;;;;;;;;;;;;;;;5081031;28;19967;-62
2023/09/04 08:13:51;;;;;;;;;;;;;;;;;;5077528;28;20002;-61
2023/09/04 08:16:17;;;;;;;;;;;;;;;;;;5078406;28;19912;-62
2023/09/04 08:18:43;;;;;;;;;;;;;;;;;;5070613;28;20292;-61
2023/09/04 08:21:09;;;;;;;;;;;;;;;;;;5083910;28;19971;-61
2023/09/04 08:23:35;;;;;;;;;;;;;;;;;;5076968;28;19909;-62
2023/09/04 08:26:01;;;;;;;;;;;;;;;;;;5078395;28;20003;-61
2023/09/04 08:28:27;;;;;;;;;;;;;;;;;;5084506;28;20564;-62
2023/09/04 08:30:53;;;;;;;;;;;;;;;;;;5072678;28;20339;-62
2023/09/04 08:33:19;;;;;;;;;;;;;;;;;;5077727;28;19977;-63
2023/09/04 08:35:44;;;;;;;;;;;;;;;;;;5077913;28;20356;-62
2023/09/04 08:38:10;;;;;;;;;;;;;;;;;;5084340;28;19958;-62
2023/09/04 08:40:36;;;;;;;;;;;;;;;;;;5078517;28;20027;-61
2023/09/04 08:43:02;;;;;;;;;;;;;;;;;;5072727;28;20408;-62
2023/09/04 08:45:28;;;;;;;;;;;;;;;;;;5082683;28;19984;-61
2023/09/04 08:47:54;;;;;;;;;;;;;;;;;;5080870;28;20287;-61
2023/09/04 08:50:21;;;;;;;;;;;;;;;;;;5081809;28;19947;-62
2023/09/04 08:52:47;;;;;;;;;;;;;;;;;;5077494;28;19995;-62
2023/09/04 08:55:13;;;;;;;;;;;;;;;;;;5093672;28;20348;-62
2023/09/04 08:57:40;;;;;;;;;;;;;;;;;;5094337;28;19912;-61
2023/09/04 09:00:05;;;;;;;;;;;;;;;;;;5088763;28;19916;-62
2023/09/04 09:02:31;;;;;;;;;;;;;;;;;;5087842;28;19944;-62
2023/09/04 09:04:57;;;;;;;;;;;;;;;;;;5084025;28;19990;-61
2023/09/04 09:07:23;;;;;;;;;;;;;;;;;;5080501;28;19918;-62
2023/09/04 09:09:49;;;;;;;;;;;;;;;;;;5083962;28;19916;-63
2023/09/04 09:12:15;;;;;;;;;;;;;;;;;;5082730;28;19915;-64
2023/09/04 09:14:41;;;;;;;;;;;;;;;;;;5084134;28;19915;-64
2023/09/04 09:17:07;;;;;;;;;;;;;;;;;;5086027;28;20407;-63
2023/09/04 09:19:33;;;;;;;;;;;;;;;;;;5084228;28;19919;-63
2023/09/04 09:21:59;;;;;;;;;;;;;;;;;;5080170;28;19959;-64
2023/09/04 09:24:25;;;;;;;;;;;;;;;;;;5090862;28;19912;-63
2023/09/04 09:26:51;;;;;;;;;;;;;;;;;;5074626;28;19966;-64
2023/09/04 09:29:17;;;;;;;;;;;;;;;;;;5086076;28;19974;-64
2023/09/04 09:31:45;;;;;;;;;;;;;;;;;;5074187;28;19944;-63
2023/09/04 09:34:11;;;;;;;;;;;;;;;;;;5084686;28;19982;-63
2023/09/04 09:36:37;;;;;;;;;;;;;;;;;;5087145;28;20387;-63
2023/09/04 09:39:03;;;;;;;;;;;;;;;;;;5077996;28;20004;-63
2023/09/04 09:41:29;;;;;;;;;;;;;;;;;;5087028;28;20041;-62
2023/09/04 09:43:55;;;;;;;;;;;;;;;;;;5075915;28;20011;-63
2023/09/04 09:46:20;;;;;;;;;;;;;;;;;;5087061;28;19951;-63
2023/09/04 09:48:46;;;;;;;;;;;;;;;;;;5081175;28;20399;-63
2023/09/04 09:51:12;;;;;;;;;;;;;;;;;;5079653;28;19913;-63
2023/09/04 09:53:38;;;;;;;;;;;;;;;;;;5086030;28;20368;-63
2023/09/04 09:56:04;;;;;;;;;;;;;;;;;;5077327;28;19934;-62
2023/09/04 09:58:30;;;;;;;;;;;;;;;;;;5080682;28;19915;-63
2023/09/04 10:00:58;;;;;;;;;;;;;;;;;;5078581;28;19944;-62
2023/09/04 10:03:23;;;;;;;;;;;;;;;;;;5079865;28;19916;-62
2023/09/04 10:05:49;;;;;;;;;;;;;;;;;;5087390;28;19955;-62
2023/09/04 10:08:15;;;;;;;;;;;;;;;;;;5080103;28;20342;-60
2023/09/04 10:10:41;;;;;;;;;;;;;;;;;;5079105;28;19908;-63
2023/09/04 10:13:07;;;;;;;;;;;;;;;;;;5074603;28;19915;-62
2023/09/04 10:15:34;;;;;;;;;;;;;;;;;;5086496;28;19920;-63
2023/09/04 10:18:00;;;;;;;;;;;;;;;;;;5073043;28;19912;-62
2023/09/04 10:20:26;;;;;;;;;;;;;;;;;;5084171;28;19924;-62
2023/09/04 10:22:52;;;;;;;;;;;;;;;;;;5080316;28;20356;-62
2023/09/04 10:25:18;;;;;;;;;;;;;;;;;;5091575;28;20378;-62
2023/09/04 10:27:43;;;;;;;;;;;;;;;;;;5076922;28;19991;-63
2023/09/04 10:30:09;;;;;;;;;;;;;;;;;;5084706;28;19995;-61
2023/09/04 10:32:35;;;;;;;;;;;;;;;;;;5080472;28;19915;-61
2023/09/04 10:35:01;;;;;;;;;;;;;;;;;;5085822;28;19912;-61
2023/09/04 10:37:27;;;;;;;;;;;;;;;;;;5090118;28;20098;-61
2023/09/04 10:39:53;;;;;;;;;;;;;;;;;;5072357;28;19916;-61
2023/09/04 10:42:20;;;;;;;;;;;;;;;;;;5078895;28;20352;-61
2023/09/04 10:44:46;;;;;;;;;;;;;;;;;;5079194;28;19916;-61
2023/09/04 10:47:12;;;;;;;;;;;;;;;;;;5085643;28;20303;-61
2023/09/04 10:49:38;;;;;;;;;;;;;;;;;;5072221;28;19912;-61
2023/09/04 10:52:05;;;;;;;;;;;;;;;;;;5083689;28;20459;-61
2023/09/04 10:54:30;;;;;;;;;;;;;;;;;;5077591;28;20011;-61
2023/09/04 10:56:56;;;;;;;;;;;;;;;;;;5083507;28;19965;-61
2023/09/04 10:59:22;;;;;;;;;;;;;;;;;;5072055;28;20391;-60
2023/09/04 11:01:48;;;;;;;;;;;;;;;;;;5075111;28;20388;-61
2023/09/04 11:04:16;;;;;;;;;;;;;;;;;;5073745;28;20001;-61
2023/09/04 11:06:42;;;;;;;;;;;;;;;;;;5078788;28;19916;-61
2023/09/04 11:09:08;;;;;;;;;;;;;;;;;;5089826;28;20335;-61
2023/09/04 11:11:35;;;;;;;;;;;;;;;;;;5072735;28;20371;-61
2023/09/04 11:14:01;;;;;;;;;;;;;;;;;;5071834;28;19909;-61
2023/09/04 11:16:27;;;;;;;;;;;;;;;;;;5085248;28;19919;-61
2023/09/04 11:18:53;;;;;;;;;;;;;;;;;;5079750;28;19995;-61
2023/09/04 11:21:19;;;;;;;;;;;;;;;;;;5084763;28;19955;-61
2023/09/04 11:23:45;;;;;;;;;;;;;;;;;;5086577;28;19922;-61
2023/09/04 11:26:11;;;;;;;;;;;;;;;;;;5082133;28;20384;-61
2023/09/04 11:28:37;;;;;;;;;;;;;;;;;;5084948;28;19999;-58
2023/09/04 11:31:03;;;;;;;;;;;;;;;;;;5080890;28;19918;-60
2023/09/04 11:33:33;;;;;;;;;;;;;;;;;;5086894;28;19912;-59
2023/09/04 11:35:59;;;;;;;;;;;;;;;;;;5080121;28;19947;-58
2023/09/04 11:38:25;;;;;;;;;;;;;;;;;;5073278;28;19966;-59
2023/09/04 11:40:51;;;;;;;;;;;;;;;;;;5073288;28;20269;-59
2023/09/04 11:43:17;;;;;;;;;;;;;;;;;;5073991;28;19964;-59
2023/09/04 11:45:43;;;;;;;;;;;;;;;;;;5073336;28;19912;-59
2023/09/04 11:48:09;;;;;;;;;;;;;;;;;;5078122;28;19934;-58
2023/09/04 11:50:35;;;;;;;;;;;;;;;;;;5071042;28;19947;-57
2023/09/04 11:53:01;;;;;;;;;;;;;;;;;;5087843;28;19958;-56
2023/09/04 11:55:26;;;;;;;;;;;;;;;;;;5089955;28;19924;-57
2023/09/04 11:57:52;;;;;;;;;;;;;;;;;;5086768;28;19917;-55
2023/09/04 12:00:18;;;;;;;;;;;;;;;;;;5074940;28;20395;-55
2023/09/04 12:02:44;;;;;;;;;;;;;;;;;;5084771;28;19955;-56
2023/09/04 12:05:10;;;;;;;;;;;;;;;;;;5079148;28;19916;-55
2023/09/04 12:07:36;;;;;;;;;;;;;;;;;;5091397;28;19990;-57
2023/09/04 12:10:03;;;;;;;;;;;;;;;;;;5086542;28;19912;-56
2023/09/04 12:12:29;;;;;;;;;;;;;;;;;;5074888;28;20010;-56
2023/09/04 12:14:55;;;;;;;;;;;;;;;;;;5070738;28;20003;-56
2023/09/04 12:17:21;;;;;;;;;;;;;;;;;;5084145;28;19951;-56
2023/09/04 12:19:48;;;;;;;;;;;;;;;;;;5082164;28;19991;-56
2023/09/04 12:22:14;;;;;;;;;;;;;;;;;;5075713;28;19913;-56
2023/09/04 12:24:40;;;;;;;;;;;;;;;;;;5090143;28;19944;-57
2023/09/04 12:27:06;;;;;;;;;;;;;;;;;;5075648;28;19978;-57
2023/09/04 12:29:31;;;;;;;;;;;;;;;;;;5088236;28;19940;-57
2023/09/04 12:31:58;;;;;;;;;;;;;;;;;;5084725;28;19912;-58
2023/09/04 12:34:25;;;;;;;;;;;;;;;;;;5087356;28;19920;-57
2023/09/04 12:36:50;;;;;;;;;;;;;;;;;;5093830;28;19908;-56
2023/09/04 12:39:16;;;;;;;;;;;;;;;;;;5081272;28;19982;-57
2023/09/04 12:41:42;;;;;;;;;;;;;;;;;;5085167;28;20009;-58
2023/09/04 12:44:08;;;;;;;;;;;;;;;;;;5081210;28;20023;-56
2023/09/04 12:46:34;;;;;;;;;;;;;;;;;;5081181;28;20280;-56
2023/09/04 12:49:00;;;;;;;;;;;;;;;;;;5084458;28;19940;-61
2023/09/04 12:51:26;;;;;;;;;;;;;;;;;;5084219;28;20490;-61
2023/09/04 12:53:52;;;;;;;;;;;;;;;;;;5077198;28;19908;-61
2023/09/04 12:56:18;;;;;;;;;;;;;;;;;;5079143;28;19912;-61
2023/09/04 12:58:44;;;;;;;;;;;;;;;;;;5091052;28;19936;-61
2023/09/04 13:01:09;;;;;;;;;;;;;;;;;;5084107;28;19914;-61
2023/09/04 13:03:35;;;;;;;;;;;;;;;;;;5086243;28;19912;-61
2023/09/04 13:06:01;;;;;;;;;;;;;;;;;;5080175;28;19951;-63
2023/09/04 13:08:27;;;;;;;;;;;;;;;;;;5080804;28;20391;-61
2023/09/04 13:10:53;;;;;;;;;;;;;;;;;;5084711;28;19915;-61
2023/09/04 13:13:19;;;;;;;;;;;;;;;;;;5084092;28;19938;-61
2023/09/04 13:15:45;;;;;;;;;;;;;;;;;;5085321;28;20540;-62
2023/09/04 13:18:11;;;;;;;;;;;;;;;;;;5085987;28;19912;-61
2023/09/04 13:20:37;;;;;;;;;;;;;;;;;;5073655;28;19921;-62
2023/09/04 13:23:03;;;;;;;;;;;;;;;;;;5080296;28;19960;-61
2023/09/04 13:25:29;;;;;;;;;;;;;;;;;;5090101;28;20363;-61
2023/09/04 13:27:55;;;;;;;;;;;;;;;;;;5078927;28;19920;-61
2023/09/04 13:30:20;;;;;;;;;;;;;;;;;;5085222;28;20022;-62
2023/09/04 13:32:46;;;;;;;;;;;;;;;;;;5083896;28;19912;-61
2023/09/04 13:35:12;;;;;;;;;;;;;;;;;;5083286;28;19908;-61
2023/09/04 13:37:38;;;;;;;;;;;;;;;;;;5083203;28;20057;-61
2023/09/04 13:40:04;;;;;;;;;;;;;;;;;;5078593;28;19912;-61
2023/09/04 13:42:30;;;;;;;;;;;;;;;;;;5084815;28;20001;-61
2023/09/04 13:44:57;;;;;;;;;;;;;;;;;;5075425;28;20416;-61
2023/09/04 13:47:24;;;;;;;;;;;;;;;;;;5078493;28;19943;-61
2023/09/04 13:49:50;;;;;;;;;;;;;;;;;;5076199;28;20021;-61
2023/09/04 13:52:16;;;;;;;;;;;;;;;;;;5079325;28;19948;-61
2023/09/04 13:54:43;;;;;;;;;;;;;;;;;;5086481;28;19930;-61
2023/09/04 13:57:09;;;;;;;;;;;;;;;;;;5082142;28;19920;-61
2023/09/04 13:59:35;;;;;;;;;;;;;;;;;;5081970;28;20445;-60
2023/09/04 14:02:01;;;;;;;;;;;;;;;;;;5079866;28;19920;-59
2023/09/04 14:04:27;;;;;;;;;;;;;;;;;;5076705;28;19913;-60
2023/09/04 14:06:52;;;;;;;;;;;;;;;;;;5078208;28;19912;-61
2023/09/04 14:09:18;;;;;;;;;;;;;;;;;;5079135;28;19956;-62
2023/09/04 14:11:44;;;;;;;;;;;;;;;;;;5079360;28;19922;-61
2023/09/04 14:14:10;;;;;;;;;;;;;;;;;;5076637;28;19972;-61
2023/09/04 14:16:36;;;;;;;;;;;;;;;;;;5080844;28;20034;-61
2023/09/04 14:19:02;;;;;;;;;;;;;;;;;;5083950;28;19918;-61
2023/09/04 14:21:28;;;;;;;;;;;;;;;;;;5073212;28;19925;-62
2023/09/04 14:23:54;;;;;;;;;;;;;;;;;;5069502;28;20303;-61
2023/09/04 14:26:20;;;;;;;;;;;;;;;;;;5077934;28;19919;-61
2023/09/04 14:28:46;;;;;;;;;;;;;;;;;;5074706;28;19952;-61
2023/09/04 14:31:12;;;;;;;;;;;;;;;;;;5076558;28;20007;-61
2023/09/04 14:33:38;;;;;;;;;;;;;;;;;;5079807;28;19970;-62
2023/09/04 14:36:04;;;;;;;;;;;;;;;;;;5079368;28;21594;-61
2023/09/04 14:38:34;;;;;;;;;;;;;;;;;;5074095;28;19952;-61
2023/09/04 14:41:01;;;;;;;;;;;;;;;;;;5079006;28;19998;-61
2023/09/04 14:43:27;;;;;;;;;;;;;;;;;;5077975;28;19920;-61
2023/09/04 14:45:53;;;;;;;;;;;;;;;;;;5071105;28;19921;-60
2023/09/04 14:48:19;;;;;;;;;;;;;;;;;;5084510;28;20256;-61
2023/09/04 14:50:45;;;;;;;;;;;;;;;;;;5078816;28;21282;-60
2023/09/04 14:53:11;;;;;;;;;;;;;;;;;;5078564;28;19921;-61
2023/09/04 14:55:38;;;;;;;;;;;;;;;;;;5078269;28;20366;-60
2023/09/04 14:58:04;;;;;;;;;;;;;;;;;;5079013;28;20364;-61
2023/09/04 15:00:30;;;;;;;;;;;;;;;;;;5073032;28;19916;-61
2023/09/04 15:02:56;;;;;;;;;;;;;;;;;;5072160;28;19916;-61
2023/09/04 15:05:22;;;;;;;;;;;;;;;;;;5076603;28;20028;-61
2023/09/04 15:07:48;;;;;;;;;;;;;;;;;;5083278;28;19952;-61
2023/09/04 15:10:14;;;;;;;;;;;;;;;;;;5080916;28;20016;-60
2023/09/04 15:12:40;;;;;;;;;;;;;;;;;;5080216;28;19923;-60
2023/09/04 15:15:06;;;;;;;;;;;;;;;;;;5080469;28;19944;-60
2023/09/04 15:17:31;;;;;;;;;;;;;;;;;;5074681;28;20004;-59
2023/09/04 15:19:57;;;;;;;;;;;;;;;;;;5082362;28;19927;-61
2023/09/04 15:22:23;;;;;;;;;;;;;;;;;;5078659;28;19920;-62
2023/09/04 15:24:49;;;;;;;;;;;;;;;;;;5078088;28;20380;-62
2023/09/04 15:27:16;;;;;;;;;;;;;;;;;;5079437;28;20003;-62
2023/09/04 15:29:42;;;;;;;;;;;;;;;;;;5078496;28;19992;-62
2023/09/04 15:32:08;;;;;;;;;;;;;;;;;;5077965;28;19947;-62
2023/09/04 15:34:37;;;;;;;;;;;;;;;;;;5075274;28;19959;-61
2023/09/04 15:37:03;;;;;;;;;;;;;;;;;;5072175;28;20379;-61
2023/09/04 15:39:29;;;;;;;;;;;;;;;;;;5077873;28;19930;-61
2023/09/04 15:41:55;;;;;;;;;;;;;;;;;;5077660;28;20011;-61
2023/09/04 15:44:21;;;;;;;;;;;;;;;;;;5083613;28;19916;-62
2023/09/04 15:46:48;;;;;;;;;;;;;;;;;;5074678;28;19919;-61
2023/09/04 15:49:14;;;;;;;;;;;;;;;;;;5077136;28;19916;-61
2023/09/04 15:51:40;;;;;;;;;;;;;;;;;;5078580;28;20350;-62
2023/09/04 15:54:05;;;;;;;;;;;;;;;;;;5082754;28;19948;-61
2023/09/04 15:56:31;;;;;;;;;;;;;;;;;;5078054;28;20015;-61
2023/09/04 15:58:57;;;;;;;;;;;;;;;;;;5078624;28;19997;-62
2023/09/04 16:01:23;;;;;;;;;;;;;;;;;;5080265;28;20066;-61
2023/09/04 16:03:49;;;;;;;;;;;;;;;;;;5079916;28;19919;-62
2023/09/04 16:06:15;;;;;;;;;;;;;;;;;;5077943;28;19917;-62
2023/09/04 16:08:41;;;;;;;;;;;;;;;;;;5086306;28;20435;-61
2023/09/04 16:11:07;;;;;;;;;;;;;;;;;;5082979;28;19951;-61
2023/09/04 16:13:33;;;;;;;;;;;;;;;;;;5081546;28;20313;-61
2023/09/04 16:15:59;;;;;;;;;;;;;;;;;;5081961;28;19922;-61
2023/09/04 16:18:25;;;;;;;;;;;;;;;;;;5075153;28;20037;-62
2023/09/04 16:20:51;;;;;;;;;;;;;;;;;;5079668;28;20486;-58
2023/09/04 16:23:18;;;;;;;;;;;;;;;;;;5081116;28;20540;-57
2023/09/04 16:25:44;;;;;;;;;;;;;;;;;;5080986;28;20065;-58
2023/09/04 16:28:11;;;;;;;;;;;;;;;;;;5090327;28;20003;-56
2023/09/04 16:30:37;;;;;;;;;;;;;;;;;;5086981;28;19912;-57
2023/09/04 16:33:10;;;;;;;;;;;;;;;;;;5077464;28;19926;-58
2023/09/04 16:35:36;;;;;;;;;;;;;;;;;;5080353;28;20369;-59
2023/09/04 16:38:03;;;;;;;;;;;;;;;;;;5085533;28;19974;-57